Time;durP1;ratioP1;P1;durP2;ratioP2;P2;SDS_P1;SDS_P2;PMS_P1;PMS_P2;Temp;Humidity;BMP_temperature;BMP_pressure;BME280_temperature;BME280_humidity;BME280_pressure;Samples;Min_cycle;Max_cycle;Signal;HPM_P1;HPM_P2
2022/06/16 00:01:47;;;;;;;11.80;8.93;;;21.90;51.30;;;;;;932087;151;27319;-77
2022/06/16 00:04:14;;;;;;;10.85;9.13;;;21.90;51.40;;;;;;933117;151;27474;-74
2022/06/16 00:06:41;;;;;;;9.78;8.70;;;21.90;51.50;;;;;;932414;151;27499;-75
2022/06/16 00:09:07;;;;;;;12.82;10.25;;;21.80;51.40;;;;;;932009;151;27414;-75
2022/06/16 00:11:34;;;;;;;19.67;14.33;;;21.80;51.60;;;;;;935987;148;27333;-74
2022/06/16 00:14:00;;;;;;;15.35;12.03;;;21.70;51.70;;;;;;925020;153;27489;-75
2022/06/16 00:16:27;;;;;;;14.03;11.73;;;21.70;52.00;;;;;;908363;153;27458;-77
2022/06/16 00:18:54;;;;;;;10.40;9.18;;;21.60;52.00;;;;;;907676;155;27903;-75
2022/06/16 00:21:20;;;;;;;13.80;9.48;;;21.50;52.10;;;;;;923902;153;27288;-76
2022/06/16 00:23:47;;;;;;;25.35;19.15;;;21.50;52.20;;;;;;909035;155;27862;-74
2022/06/16 00:26:13;;;;;;;25.35;19.73;;;21.40;53.00;;;;;;924823;153;27782;-74
2022/06/16 00:28:43;;;;;;;25.68;19.23;;;21.40;52.40;;;;;;919672;153;27324;-75
2022/06/16 00:31:09;;;;;;;12.07;9.28;;;21.40;52.60;;;;;;921563;153;27514;-75
2022/06/16 00:33:36;;;;;;;5.78;5.17;;;21.30;52.60;;;;;;921981;153;27509;-75
2022/06/16 00:36:02;;;;;;;4.03;3.62;;;21.30;52.80;;;;;;919149;152;27408;-74
2022/06/16 00:38:29;;;;;;;3.85;3.52;;;21.20;52.80;;;;;;921985;152;27360;-74
2022/06/16 00:40:56;;;;;;;2.62;2.42;;;21.20;53.00;;;;;;908449;155;27381;-77
2022/06/16 00:43:22;;;;;;;4.28;2.77;;;21.20;53.10;;;;;;901873;155;27827;-74
2022/06/16 00:45:55;;;;;;;2.85;2.55;;;21.10;53.30;;;;;;902207;155;27430;-74
2022/06/16 00:48:21;;;;;;;3.33;2.65;;;21.10;53.40;;;;;;898972;155;27399;-74
2022/06/16 00:50:48;;;;;;;3.02;2.83;;;21.10;53.50;;;;;;920644;153;27472;-75
2022/06/16 00:53:14;;;;;;;2.37;2.27;;;21.10;53.50;;;;;;921983;151;27771;-77
2022/06/16 00:55:41;;;;;;;3.33;3.02;;;21.00;53.50;;;;;;917720;153;27507;-74
2022/06/16 00:58:07;;;;;;;4.87;4.37;;;21.00;53.70;;;;;;920561;153;27478;-74
2022/06/16 01:00:36;;;;;;;3.60;3.30;;;21.00;53.90;;;;;;918387;153;27992;-73
2022/06/16 01:03:01;;;;;;;4.20;3.30;;;20.90;54.00;;;;;;919889;153;27335;-74
2022/06/16 01:05:27;;;;;;;2.72;2.52;;;20.90;54.00;;;;;;924711;153;27359;-74
2022/06/16 01:07:54;;;;;;;3.02;2.52;;;20.80;54.30;;;;;;923118;152;27974;-73
2022/06/16 01:10:20;;;;;;;2.70;2.50;;;20.80;54.40;;;;;;919669;150;28185;-73
2022/06/16 01:16:04;;;;;;;2.95;2.65;;;20.70;54.50;;;;;;918005;154;27273;-75
2022/06/16 01:18:40;;;;;;;2.83;2.62;;;20.70;54.50;;;;;;918725;154;27400;-74
2022/06/16 01:21:15;;;;;;;3.08;2.83;;;20.70;54.60;;;;;;914038;150;27348;-72
2022/06/16 01:23:55;;;;;;;3.98;2.47;;;20.60;54.80;;;;;;917207;153;27261;-72
2022/06/16 01:26:53;;;;;;;3.17;2.98;;;20.60;55.00;;;;;;917859;153;27263;-74
2022/06/16 01:29:35;;;;;;;2.85;2.65;;;20.60;55.30;;;;;;919143;153;27360;-73
2022/06/16 01:32:19;;;;;;;2.92;2.60;;;20.50;55.20;;;;;;915464;154;27883;-74
2022/06/16 01:34:52;;;;;;;3.20;2.67;;;20.50;55.20;;;;;;918098;153;27312;-73
2022/06/16 01:37:31;;;;;;;3.25;2.95;;;20.40;55.20;;;;;;914937;153;27243;-73
2022/06/16 01:40:12;;;;;;;3.20;2.90;;;20.30;55.30;;;;;;917667;153;27299;-73
2022/06/16 01:42:41;;;;;;;4.42;3.52;;;20.30;55.50;;;;;;916482;151;27392;-75
2022/06/16 01:45:20;;;;;;;8.25;7.30;;;20.10;55.60;;;;;;912337;153;27328;-72
2022/06/16 01:47:46;;;;;;;4.75;4.00;;;20.00;55.80;;;;;;913809;153;27304;-73
2022/06/16 01:50:13;;;;;;;4.90;4.08;;;20.00;55.90;;;;;;917871;154;27368;-73
2022/06/16 01:52:40;;;;;;;4.55;4.03;;;19.90;56.30;;;;;;919598;153;27275;-73
2022/06/16 01:55:12;;;;;;;3.65;3.42;;;19.80;56.50;;;;;;920029;153;27289;-74
2022/06/16 01:57:42;;;;;;;4.30;3.85;;;19.70;56.60;;;;;;918692;153;27442;-72
2022/06/16 02:00:08;;;;;;;4.15;3.75;;;19.70;56.80;;;;;;909534;151;27953;-73
2022/06/16 02:02:35;;;;;;;3.50;3.20;;;19.60;57.00;;;;;;916873;154;27307;-73
2022/06/16 02:05:17;;;;;;;3.40;3.20;;;19.50;57.20;;;;;;917233;154;27288;-73
2022/06/16 02:07:49;;;;;;;3.58;3.27;;;19.40;57.50;;;;;;918496;153;28018;-73
2022/06/16 02:10:18;;;;;;;3.50;3.20;;;19.40;58.00;;;;;;916712;154;27297;-73
2022/06/16 02:12:57;;;;;;;3.47;3.20;;;19.30;58.20;;;;;;914971;153;27415;-73
2022/06/16 02:15:35;;;;;;;3.95;3.60;;;19.30;59.10;;;;;;913512;155;27402;-74
2022/06/16 02:18:02;;;;;;;4.17;3.47;;;19.30;58.70;;;;;;911221;155;27319;-75
2022/06/16 02:20:28;;;;;;;6.12;4.05;;;19.20;58.80;;;;;;911072;155;27399;-73
2022/06/16 02:22:57;;;;;;;3.50;3.22;;;19.20;59.10;;;;;;908857;155;27518;-76
2022/06/16 02:25:21;;;;;;;3.87;3.50;;;19.20;59.30;;;;;;912101;155;27361;-77
2022/06/16 02:27:48;;;;;;;3.20;2.90;;;19.20;59.30;;;;;;911531;155;27739;-76
2022/06/16 02:30:15;;;;;;;3.90;3.60;;;19.20;59.30;;;;;;911081;155;27450;-76
2022/06/16 02:32:47;;;;;;;3.22;3.00;;;19.20;59.30;;;;;;911871;155;27454;-75
2022/06/16 02:35:16;;;;;;;3.67;3.37;;;19.10;59.40;;;;;;909122;155;27383;-76
2022/06/16 02:37:58;;;;;;;3.60;3.25;;;19.10;59.40;;;;;;911199;155;28121;-77
2022/06/16 02:40:39;;;;;;;3.40;3.20;;;19.10;59.60;;;;;;911771;155;27409;-76
2022/06/16 02:43:06;;;;;;;3.85;3.17;;;19.00;59.50;;;;;;909083;155;27443;-75
2022/06/16 02:45:36;;;;;;;3.35;3.15;;;19.00;59.50;;;;;;912141;155;27409;-77
2022/06/16 02:48:33;;;;;;;3.40;3.20;;;19.00;59.70;;;;;;910035;155;27428;-74
2022/06/16 02:51:05;;;;;;;3.35;3.08;;;19.00;60.00;;;;;;910714;155;27945;-74
2022/06/16 02:54:29;;;;;;;4.10;3.58;;;18.90;59.90;;;;;;911359;155;27383;-74
2022/06/16 02:56:28;;;;;;;3.95;3.65;;;18.90;60.10;;;;;;904953;155;27532;-74
2022/06/16 02:58:55;;;;;;;4.30;3.70;;;18.80;60.00;;;;;;911862;155;27489;-73
2022/06/16 03:01:21;;;;;;;5.17;3.57;;;18.80;60.40;;;;;;909946;155;27521;-74
2022/06/16 03:04:06;;;;;;;3.60;3.30;;;18.80;60.70;;;;;;911572;155;27351;-74
2022/06/16 03:06:32;;;;;;;3.67;3.42;;;18.80;61.00;;;;;;896411;155;27408;-74
2022/06/16 03:08:59;;;;;;;3.60;3.17;;;18.70;61.00;;;;;;909133;155;27393;-74
2022/06/16 03:11:26;;;;;;;3.65;3.35;;;18.70;61.00;;;;;;909911;155;27490;-74
2022/06/16 03:13:53;;;;;;;3.90;3.50;;;18.70;61.40;;;;;;911873;154;27356;-74
2022/06/16 03:16:19;;;;;;;3.92;3.52;;;18.60;61.40;;;;;;918491;154;27267;-74
2022/06/16 03:18:46;;;;;;;3.87;3.57;;;18.60;61.50;;;;;;916936;154;27385;-74
2022/06/16 03:21:12;;;;;;;3.72;3.42;;;18.60;61.50;;;;;;917846;153;27429;-74
2022/06/16 03:23:39;;;;;;;3.60;3.30;;;18.60;61.80;;;;;;918559;154;27344;-74
2022/06/16 03:26:05;;;;;;;3.87;3.58;;;18.60;62.10;;;;;;919702;154;27422;-74
2022/06/16 03:28:32;;;;;;;3.45;3.20;;;18.60;62.10;;;;;;917889;154;28267;-74
2022/06/16 03:30:58;;;;;;;3.45;3.25;;;18.70;62.30;;;;;;921218;153;27366;-74
2022/06/16 03:33:25;;;;;;;4.53;3.55;;;18.70;62.30;;;;;;917979;153;27326;-74
2022/06/16 03:35:52;;;;;;;3.40;3.03;;;18.70;62.30;;;;;;919089;153;27271;-74
2022/06/16 03:41:03;;;;;;;3.53;3.23;;;18.80;62.50;;;;;;916770;154;27457;-74
2022/06/16 03:43:30;;;;;;;4.65;3.25;;;18.80;62.20;;;;;;915181;154;27504;-74
2022/06/16 03:45:56;;;;;;;3.17;2.95;;;18.80;62.40;;;;;;919592;150;27288;-74
2022/06/16 03:48:23;;;;;;;3.35;3.05;;;18.80;62.50;;;;;;916717;153;27360;-74
2022/06/16 03:50:49;;;;;;;3.70;3.42;;;18.80;62.70;;;;;;920164;154;27290;-74
2022/06/16 03:53:16;;;;;;;3.52;3.33;;;18.80;62.80;;;;;;919848;152;27331;-74
2022/06/16 03:55:42;;;;;;;3.33;3.10;;;18.80;62.80;;;;;;918021;154;28335;-74
2022/06/16 03:58:09;;;;;;;3.08;2.87;;;18.90;62.80;;;;;;915063;154;27377;-75
2022/06/16 04:00:36;;;;;;;4.43;2.90;;;18.90;62.80;;;;;;918585;153;27317;-74
2022/06/16 04:05:47;;;;;;;3.25;3.05;;;19.00;62.90;;;;;;917876;154;27897;-74
2022/06/16 04:08:16;;;;;;;3.37;2.92;;;19.00;63.00;;;;;;918261;152;27443;-74
2022/06/16 04:10:40;;;;;;;4.40;2.80;;;19.00;62.80;;;;;;916878;153;27275;-74
2022/06/16 04:13:06;;;;;;;2.95;2.70;;;19.10;62.10;;;;;;918754;154;27284;-74
2022/06/16 04:15:33;;;;;;;3.08;2.87;;;19.10;63.00;;;;;;923411;153;27274;-74
2022/06/16 04:18:00;;;;;;;2.52;2.33;;;19.20;63.20;;;;;;921141;153;27342;-74
2022/06/16 04:20:26;;;;;;;3.35;3.05;;;19.20;63.00;;;;;;923507;152;27317;-74
2022/06/16 04:22:53;;;;;;;3.02;2.75;;;19.30;63.00;;;;;;922010;153;27260;-74
2022/06/16 04:25:19;;;;;;;3.17;2.87;;;19.40;63.00;;;;;;921230;152;27369;-74
2022/06/16 04:27:46;;;;;;;4.00;2.72;;;19.40;63.00;;;;;;924215;153;27269;-74
2022/06/16 04:30:13;;;;;;;2.70;2.50;;;19.60;62.90;;;;;;923107;153;27285;-74
2022/06/16 04:32:39;;;;;;;2.85;2.65;;;19.60;62.80;;;;;;923942;153;27459;-72
2022/06/16 04:35:06;;;;;;;3.58;2.62;;;19.80;62.80;;;;;;921983;150;27292;-74
2022/06/16 04:37:32;;;;;;;2.70;2.40;;;19.90;62.70;;;;;;918325;152;27317;-74
2022/06/16 04:39:59;;;;;;;2.80;2.60;;;20.00;62.60;;;;;;921858;153;27282;-74
2022/06/16 04:42:26;;;;;;;2.20;2.10;;;20.20;62.50;;;;;;921158;152;27676;-74
2022/06/16 04:44:52;;;;;;;2.47;2.27;;;20.30;62.20;;;;;;925983;153;27413;-74
2022/06/16 04:47:19;;;;;;;2.92;2.12;;;20.40;61.90;;;;;;923953;153;27307;-74
2022/06/16 04:49:48;;;;;;;2.45;2.25;;;20.60;61.60;;;;;;922638;153;27331;-74
2022/06/16 04:52:12;;;;;;;2.45;2.25;;;20.70;61.40;;;;;;921841;153;27257;-75
2022/06/16 04:54:39;;;;;;;2.40;2.17;;;20.80;61.10;;;;;;921248;152;27734;-74
2022/06/16 04:57:05;;;;;;;2.52;2.33;;;20.90;61.10;;;;;;925883;150;27297;-75
2022/06/16 04:59:32;;;;;;;2.12;1.98;;;21.00;60.60;;;;;;925105;152;27366;-74
2022/06/16 05:01:58;;;;;;;2.65;2.10;;;21.10;60.40;;;;;;921891;152;27253;-74
2022/06/16 05:04:25;;;;;;;2.08;1.98;;;21.20;60.20;;;;;;920603;153;27248;-74
2022/06/16 05:06:51;;;;;;;2.30;2.10;;;21.30;60.10;;;;;;922042;153;27303;-74
2022/06/16 05:09:18;;;;;;;1.72;1.62;;;21.50;60.60;;;;;;922370;153;27344;-74
2022/06/16 05:11:45;;;;;;;3.77;1.87;;;21.80;61.70;;;;;;921525;150;27313;-74
2022/06/16 05:14:11;;;;;;;2.02;1.90;;;22.10;61.00;;;;;;920520;153;27756;-74
2022/06/16 05:16:38;;;;;;;2.10;2.00;;;22.50;60.80;;;;;;920091;153;27516;-74
2022/06/16 05:19:04;;;;;;;2.95;1.70;;;22.90;60.60;;;;;;920546;153;27248;-75
2022/06/16 05:21:31;;;;;;;2.08;1.82;;;23.50;60.60;;;;;;916081;153;27299;-74
2022/06/16 05:23:58;;;;;;;1.72;1.62;;;24.00;60.00;;;;;;919664;153;27294;-75
2022/06/16 05:26:24;;;;;;;2.30;1.20;;;24.60;58.90;;;;;;917743;153;27420;-74
2022/06/16 05:28:51;;;;;;;1.77;1.67;;;25.10;57.70;;;;;;918999;154;27252;-74
2022/06/16 05:31:17;;;;;;;2.47;1.90;;;25.60;56.50;;;;;;916678;151;27344;-75
2022/06/16 05:33:44;;;;;;;3.00;1.40;;;25.90;56.10;;;;;;922316;153;27367;-75
2022/06/16 05:36:11;;;;;;;3.33;2.60;;;26.40;56.10;;;;;;915395;153;27287;-75
2022/06/16 05:38:37;;;;;;;2.62;1.50;;;26.80;55.40;;;;;;920057;153;27325;-74
2022/06/16 05:41:04;;;;;;;1.90;1.80;;;27.20;54.40;;;;;;920280;153;27278;-74
2022/06/16 05:43:30;;;;;;;2.17;1.90;;;27.60;53.60;;;;;;917446;154;27369;-74
2022/06/16 05:45:57;;;;;;;1.55;1.30;;;28.00;52.90;;;;;;923022;153;27254;-76
2022/06/16 05:48:23;;;;;;;2.30;1.40;;;28.30;52.80;;;;;;920226;153;27247;-75
2022/06/16 05:50:50;;;;;;;1.40;1.27;;;28.70;52.60;;;;;;920604;154;27758;-75
2022/06/16 05:53:17;;;;;;;3.47;1.70;;;29.20;52.30;;;;;;920976;154;27376;-74
2022/06/16 05:55:43;;;;;;;2.17;1.55;;;29.60;50.40;;;;;;916993;153;27865;-75
2022/06/16 05:58:10;;;;;;;1.20;1.12;;;30.00;49.80;;;;;;917686;154;27258;-75
2022/06/16 06:00:37;;;;;;;1.70;1.60;;;30.30;49.30;;;;;;918946;153;27346;-75
2022/06/16 06:03:03;;;;;;;1.80;1.50;;;30.60;48.80;;;;;;918870;153;27750;-75
2022/06/16 06:05:30;;;;;;;6.40;1.70;;;30.80;48.10;;;;;;921390;153;27365;-74
2022/06/16 06:18:58;;;;;;;2.90;1.50;;;31.20;45.00;;;;;;927308;152;27319;-74
2022/06/16 06:24:09;;;;;;;1.98;1.40;;;30.80;44.70;;;;;;924164;152;27215;-74
2022/06/16 06:26:36;;;;;;;2.70;1.57;;;30.70;45.50;;;;;;929448;150;27644;-74
2022/06/16 06:29:02;;;;;;;2.22;1.60;;;30.70;45.10;;;;;;928693;152;27350;-74
2022/06/16 06:31:29;;;;;;;3.30;1.52;;;30.70;44.60;;;;;;922097;153;27433;-74
2022/06/16 06:33:55;;;;;;;2.60;1.50;;;30.60;44.60;;;;;;926873;152;27317;-74
2022/06/16 06:36:22;;;;;;;2.15;1.20;;;30.50;44.40;;;;;;924326;153;27334;-74
2022/06/16 06:38:49;;;;;;;1.90;1.70;;;30.40;44.60;;;;;;926158;153;27299;-75
2022/06/16 06:41:17;;;;;;;3.10;1.75;;;30.20;44.60;;;;;;925219;152;27347;-74
2022/06/16 06:43:43;;;;;;;2.00;1.47;;;30.10;44.50;;;;;;922683;153;27339;-74
2022/06/16 06:46:08;;;;;;;1.62;1.52;;;30.00;44.70;;;;;;924144;152;27391;-74
2022/06/16 06:48:35;;;;;;;2.45;1.45;;;29.80;44.50;;;;;;919780;153;27301;-74
2022/06/16 06:51:01;;;;;;;4.05;1.60;;;29.70;44.60;;;;;;920382;153;27254;-74
2022/06/16 06:53:28;;;;;;;1.65;1.55;;;29.50;44.80;;;;;;921310;152;27264;-74
2022/06/16 06:55:55;;;;;;;3.10;1.95;;;29.40;45.10;;;;;;920906;153;27277;-75
2022/06/16 06:58:21;;;;;;;1.57;1.47;;;29.40;45.60;;;;;;922705;153;27443;-74
2022/06/16 07:00:51;;;;;;;2.37;1.42;;;29.60;46.10;;;;;;920386;152;27408;-74
2022/06/16 07:03:14;;;;;;;1.70;1.60;;;29.90;46.10;;;;;;920780;153;27306;-74
2022/06/16 07:05:41;;;;;;;1.90;1.45;;;30.10;45.80;;;;;;924219;152;27364;-74
2022/06/16 07:08:08;;;;;;;1.70;1.60;;;30.40;45.60;;;;;;922801;152;27321;-75
2022/06/16 07:10:34;;;;;;;1.62;1.50;;;30.70;45.70;;;;;;922922;153;27364;-75
2022/06/16 07:13:01;;;;;;;1.57;1.40;;;31.10;45.60;;;;;;923697;153;27364;-75
2022/06/16 07:15:27;;;;;;;1.57;1.47;;;31.50;45.20;;;;;;922886;153;28262;-74
2022/06/16 07:17:54;;;;;;;1.27;1.20;;;31.90;44.70;;;;;;916867;154;27308;-75
2022/06/16 07:20:21;;;;;;;1.42;1.32;;;32.30;44.50;;;;;;916104;153;27325;-74
2022/06/16 07:22:47;;;;;;;1.65;1.55;;;32.80;43.90;;;;;;916777;153;27239;-75
2022/06/16 07:25:14;;;;;;;1.42;1.30;;;33.20;43.50;;;;;;918484;153;28014;-74
2022/06/16 07:27:40;;;;;;;1.98;1.35;;;33.60;43.00;;;;;;917754;154;27404;-75
2022/06/16 07:30:13;;;;;;;2.83;1.47;;;34.00;42.40;;;;;;916805;153;27329;-74
2022/06/16 07:32:34;;;;;;;1.85;1.40;;;34.20;41.70;;;;;;918236;153;27414;-75
2022/06/16 07:35:00;;;;;;;2.02;1.82;;;34.40;40.90;;;;;;917816;154;27320;-75
2022/06/16 07:37:27;;;;;;;2.15;1.60;;;34.60;40.00;;;;;;918967;154;27322;-75
2022/06/16 07:39:53;;;;;;;2.42;1.47;;;34.70;40.20;;;;;;917891;150;27409;-75
2022/06/16 07:42:20;;;;;;;1.35;1.22;;;34.80;40.60;;;;;;918090;153;26611;-74
2022/06/16 07:44:46;;;;;;;2.22;1.30;;;35.10;40.90;;;;;;918938;154;27341;-75
2022/06/16 07:47:13;;;;;;;1.87;1.40;;;35.50;40.80;;;;;;913629;154;26331;-75
2022/06/16 07:49:40;;;;;;;2.67;1.40;;;35.90;40.70;;;;;;920651;154;27361;-76
2022/06/16 07:52:06;;;;;;;2.12;1.35;;;36.50;40.10;;;;;;919784;153;26210;-75
2022/06/16 07:54:33;;;;;;;1.92;1.30;;;37.10;39.70;;;;;;920189;153;27316;-74
2022/06/16 07:56:59;;;;;;;1.77;1.17;;;37.70;39.30;;;;;;919060;154;26243;-75
2022/06/16 07:59:26;;;;;;;2.12;1.30;;;38.40;38.00;;;;;;916475;153;26204;-74
2022/06/16 08:01:54;;;;;;;2.70;1.40;;;38.90;36.90;;;;;;917076;153;26226;-75
2022/06/16 08:04:19;;;;;;;1.90;1.50;;;39.40;36.50;;;;;;917819;154;26196;-76
2022/06/16 08:06:46;;;;;;;1.05;0.98;;;39.70;35.80;;;;;;919840;153;26258;-74
2022/06/16 08:09:12;;;;;;;1.98;1.52;;;40.10;35.50;;;;;;917437;153;26371;-75
2022/06/16 08:14:24;;;;;;;3.45;1.62;;;40.80;34.70;;;;;;921474;154;26266;-75
2022/06/16 08:16:50;;;;;;;2.37;1.35;;;41.10;33.50;;;;;;920324;153;26359;-74
2022/06/16 08:19:17;;;;;;;2.42;1.60;;;41.40;33.50;;;;;;922784;153;26287;-75
2022/06/16 08:21:44;;;;;;;2.65;1.20;;;41.60;32.70;;;;;;925486;153;26199;-74
2022/06/16 08:24:10;;;;;;;3.02;1.50;;;41.70;32.10;;;;;;924032;153;26248;-75
2022/06/16 08:26:37;;;;;;;1.57;1.37;;;41.90;31.90;;;;;;920902;152;26238;-75
2022/06/16 08:29:03;;;;;;;3.17;1.40;;;42.00;31.90;;;;;;922854;153;26211;-76
2022/06/16 08:31:30;;;;;;;1.98;1.42;;;42.10;31.00;;;;;;925099;153;26226;-76
2022/06/16 08:33:56;;;;;;;1.32;1.22;;;42.20;30.70;;;;;;926750;152;26231;-74
2022/06/16 08:36:23;;;;;;;1.45;1.35;;;42.30;30.50;;;;;;924444;152;26239;-75
2022/06/16 08:38:50;;;;;;;2.08;1.52;;;42.30;29.70;;;;;;923053;153;26188;-75
2022/06/16 08:41:31;;;;;;;2.30;1.40;;;42.30;29.50;;;;;;920520;152;26213;-75
2022/06/16 08:44:13;;;;;;;2.95;1.20;;;42.10;29.20;;;;;;922248;153;26203;-76
2022/06/16 08:46:39;;;;;;;1.55;1.20;;;42.00;29.80;;;;;;925608;152;26223;-75
2022/06/16 08:49:39;;;;;;;2.90;1.70;;;41.90;29.80;;;;;;922577;153;26160;-75
2022/06/16 08:52:03;;;;;;;1.42;1.32;;;41.90;29.10;;;;;;918219;150;26188;-74
2022/06/16 08:55:06;;;;;;;3.02;1.65;;;41.90;29.30;;;;;;920653;153;26388;-74
2022/06/16 08:57:42;;;;;;;9.45;1.55;;;41.90;29.30;;;;;;921823;153;26332;-76
2022/06/16 09:00:20;;;;;;;3.80;1.50;;;41.80;28.90;;;;;;920852;153;26320;-75
2022/06/16 09:02:53;;;;;;;2.70;1.32;;;41.70;29.00;;;;;;900163;155;26445;-75
2022/06/16 09:05:34;;;;;;;4.28;1.85;;;41.50;29.00;;;;;;899395;155;26372;-74
2022/06/16 09:08:16;;;;;;;2.27;1.55;;;41.30;28.70;;;;;;906767;156;26381;-74
2022/06/16 09:10:48;;;;;;;2.22;1.40;;;41.30;29.10;;;;;;898774;155;26384;-75
2022/06/16 09:13:17;;;;;;;1.35;1.25;;;41.20;29.00;;;;;;899464;155;26456;-76
2022/06/16 09:15:47;;;;;;;1.60;1.15;;;41.20;29.00;;;;;;924620;153;26340;-76
2022/06/16 09:18:19;;;;;;;1.72;1.10;;;41.20;29.10;;;;;;921398;150;26271;-75
2022/06/16 09:21:01;;;;;;;3.45;1.30;;;41.30;29.20;;;;;;921189;153;26246;-75
2022/06/16 09:23:49;;;;;;;1.75;1.45;;;41.40;29.10;;;;;;920764;153;26284;-75
2022/06/16 09:26:25;;;;;;;3.87;1.45;;;41.60;28.90;;;;;;924177;150;26235;-75
2022/06/16 09:29:09;;;;;;;1.30;1.20;;;41.70;28.90;;;;;;921780;153;26212;-76
2022/06/16 09:31:42;;;;;;;2.10;1.50;;;41.90;28.70;;;;;;919449;152;26359;-75
2022/06/16 09:34:21;;;;;;;4.65;1.30;;;42.00;28.70;;;;;;877283;153;26254;-77
2022/06/16 09:36:47;;;;;;;1.30;1.02;;;42.20;28.40;;;;;;924578;152;26308;-74
2022/06/16 09:39:20;;;;;;;1.37;1.20;;;42.20;28.20;;;;;;923523;153;26201;-75
2022/06/16 09:44:58;;;;;;;1.42;1.20;;;42.20;27.70;;;;;;925920;152;26167;-76
2022/06/16 09:47:26;;;;;;;1.85;1.40;;;42.10;27.80;;;;;;923704;153;26258;-74
2022/06/16 09:50:00;;;;;;;2.15;1.45;;;42.00;27.80;;;;;;924251;153;26148;-74
2022/06/16 09:52:27;;;;;;;1.17;1.07;;;41.90;27.80;;;;;;925648;153;26252;-74
2022/06/16 09:54:56;;;;;;;1.87;1.40;;;41.80;27.50;;;;;;924115;153;26128;-75
2022/06/16 09:57:23;;;;;;;1.90;1.30;;;41.70;27.50;;;;;;918526;151;26288;-74
2022/06/16 09:59:55;;;;;;;2.40;1.30;;;41.60;27.50;;;;;;917415;152;28441;-74
2022/06/16 10:02:25;;;;;;;3.08;1.70;;;41.40;27.20;;;;;;921628;153;26234;-75
2022/06/16 10:04:51;;;;;;;1.72;1.30;;;41.20;27.40;;;;;;920443;152;26343;-75
2022/06/16 10:07:42;;;;;;;1.87;1.40;;;41.00;27.40;;;;;;923006;153;26192;-77
2022/06/16 10:10:36;;;;;;;2.52;1.20;;;40.70;27.30;;;;;;921141;152;26348;-77
2022/06/16 10:13:25;;;;;;;1.47;1.22;;;40.30;27.50;;;;;;921192;152;27480;-76
2022/06/16 10:15:50;;;;;;;3.08;1.30;;;39.90;27.70;;;;;;920904;152;27320;-74
2022/06/16 10:18:17;;;;;;;3.92;1.82;;;39.50;27.90;;;;;;910728;153;26330;-75
2022/06/16 10:20:43;;;;;;;1.62;1.20;;;39.20;27.90;;;;;;920466;153;26159;-75
2022/06/16 10:23:22;;;;;;;2.08;1.40;;;38.90;27.90;;;;;;918226;152;26324;-75
2022/06/16 10:25:48;;;;;;;1.35;1.25;;;38.70;27.90;;;;;;923802;150;27364;-74
2022/06/16 10:28:33;;;;;;;1.57;1.20;;;38.30;27.90;;;;;;924851;153;28264;-74
2022/06/16 10:30:59;;;;;;;2.15;1.35;;;38.00;28.00;;;;;;925473;152;27340;-75
2022/06/16 10:33:29;;;;;;;2.80;1.70;;;37.60;28.10;;;;;;925105;152;27332;-76
2022/06/16 10:36:04;;;;;;;2.00;1.42;;;37.30;28.10;;;;;;922138;152;27467;-76
2022/06/16 10:38:33;;;;;;;1.77;1.60;;;36.90;28.30;;;;;;923001;153;27369;-75
2022/06/16 10:41:01;;;;;;;2.37;1.52;;;36.50;28.50;;;;;;919984;152;27350;-75
2022/06/16 10:43:27;;;;;;;1.50;1.40;;;36.10;28.70;;;;;;921189;153;27259;-76
2022/06/16 10:45:56;;;;;;;1.52;1.40;;;35.70;28.90;;;;;;919850;150;28099;-75
2022/06/16 10:48:31;;;;;;;2.47;1.45;;;35.40;29.00;;;;;;918632;153;27403;-74
2022/06/16 10:51:10;;;;;;;1.45;1.32;;;35.20;29.30;;;;;;917546;152;27363;-76
2022/06/16 10:53:40;;;;;;;1.82;1.40;;;34.90;29.40;;;;;;919385;152;27392;-74
2022/06/16 10:56:07;;;;;;;1.52;1.30;;;34.60;29.50;;;;;;922059;151;27377;-74
2022/06/16 10:58:32;;;;;;;1.42;1.32;;;34.30;29.60;;;;;;924993;153;27301;-76
2022/06/16 11:01:11;;;;;;;2.65;1.42;;;34.10;29.70;;;;;;922359;152;28316;-74
2022/06/16 11:03:43;;;;;;;1.82;1.17;;;33.90;29.70;;;;;;924706;152;27288;-74
2022/06/16 11:06:09;;;;;;;2.52;1.47;;;33.60;29.80;;;;;;921713;152;27265;-75
2022/06/16 11:08:36;;;;;;;1.70;1.60;;;33.40;30.00;;;;;;926135;152;27455;-75
2022/06/16 11:11:03;;;;;;;2.92;1.57;;;33.10;30.30;;;;;;921739;152;27858;-75
2022/06/16 11:13:29;;;;;;;2.60;1.60;;;33.00;30.60;;;;;;924367;152;27377;-74
2022/06/16 11:15:56;;;;;;;1.57;1.47;;;32.80;30.80;;;;;;921088;153;27348;-75
2022/06/16 11:18:25;;;;;;;4.80;1.40;;;32.70;31.00;;;;;;896938;155;27463;-74
2022/06/16 11:20:52;;;;;;;1.40;1.30;;;32.60;31.20;;;;;;892952;158;27418;-76
2022/06/16 11:23:19;;;;;;;2.47;1.55;;;32.50;31.30;;;;;;902444;156;27452;-75
2022/06/16 11:25:45;;;;;;;3.58;2.02;;;32.40;31.30;;;;;;898505;157;28639;-75
2022/06/16 11:28:14;;;;;;;1.82;1.35;;;32.40;31.20;;;;;;915643;153;27326;-74
2022/06/16 11:30:43;;;;;;;1.98;1.45;;;32.20;31.30;;;;;;908571;156;27490;-74
2022/06/16 11:34:06;;;;;;;1.80;1.40;;;32.20;31.30;;;;;;909923;156;27419;-74
2022/06/16 11:35:53;;;;;;;1.50;1.40;;;32.10;31.40;;;;;;914036;153;27412;-74
2022/06/16 11:38:22;;;;;;;1.37;1.25;;;32.00;31.40;;;;;;900844;156;27409;-74
2022/06/16 11:40:51;;;;;;;1.57;1.47;;;31.90;31.20;;;;;;915576;153;27327;-74
2022/06/16 11:43:36;;;;;;;2.45;1.32;;;31.90;31.40;;;;;;891759;159;27499;-75
2022/06/16 11:46:23;;;;;;;1.72;1.40;;;31.80;31.50;;;;;;892120;159;27429;-74
2022/06/16 11:48:59;;;;;;;2.10;1.55;;;31.80;31.40;;;;;;852768;165;27554;-76
2022/06/16 11:51:38;;;;;;;1.90;1.62;;;31.80;31.30;;;;;;851773;165;27468;-74
2022/06/16 11:54:22;;;;;;;1.50;1.40;;;31.70;31.20;;;;;;869864;159;27480;-75
2022/06/16 11:57:01;;;;;;;1.22;1.12;;;31.60;31.30;;;;;;889904;159;27323;-75
2022/06/16 11:59:36;;;;;;;3.98;1.50;;;31.60;31.30;;;;;;893889;159;27432;-74
2022/06/16 12:02:03;;;;;;;1.85;1.35;;;31.60;31.80;;;;;;890852;159;27770;-74
2022/06/16 12:04:39;;;;;;;1.35;1.25;;;31.50;31.90;;;;;;918344;153;27529;-74
2022/06/16 12:07:29;;;;;;;1.65;1.45;;;31.50;31.90;;;;;;916809;154;27264;-74
2022/06/16 12:10:15;;;;;;;1.90;1.45;;;31.50;31.90;;;;;;916178;154;27288;-74
2022/06/16 12:12:41;;;;;;;1.52;1.42;;;31.60;31.80;;;;;;884044;153;27469;-74
2022/06/16 12:15:26;;;;;;;1.50;1.40;;;31.60;31.90;;;;;;923144;153;27370;-74
2022/06/16 12:17:59;;;;;;;2.00;1.80;;;31.60;32.10;;;;;;919359;153;27355;-74
2022/06/16 12:20:55;;;;;;;3.67;1.52;;;31.60;32.00;;;;;;935125;150;27407;-75
2022/06/16 12:23:43;;;;;;;2.22;1.70;;;31.50;32.00;;;;;;935867;151;27350;-74
2022/06/16 12:26:16;;;;;;;3.05;1.60;;;31.50;32.10;;;;;;901702;155;27378;-75
2022/06/16 12:28:42;;;;;;;2.27;1.50;;;31.40;32.10;;;;;;901567;155;27473;-75
2022/06/16 12:31:17;;;;;;;2.90;1.82;;;31.30;32.20;;;;;;900556;155;27450;-73
2022/06/16 12:34:05;;;;;;;1.37;1.30;;;31.30;32.40;;;;;;900394;155;27478;-74
2022/06/16 12:36:34;;;;;;;2.15;1.60;;;31.30;32.60;;;;;;900962;155;27491;-75
2022/06/16 12:39:01;;;;;;;1.98;1.62;;;31.30;32.70;;;;;;901477;155;27465;-74
2022/06/16 12:41:42;;;;;;;1.62;1.52;;;31.30;32.80;;;;;;901041;155;27434;-76
2022/06/16 12:44:12;;;;;;;3.27;1.55;;;31.20;32.90;;;;;;906516;155;27899;-76
2022/06/16 12:46:41;;;;;;;2.17;1.60;;;31.20;32.90;;;;;;924629;153;27384;-75
2022/06/16 12:49:07;;;;;;;1.30;1.25;;;31.20;33.20;;;;;;922179;153;27298;-74
2022/06/16 12:51:37;;;;;;;2.02;1.60;;;31.20;33.20;;;;;;895253;155;27476;-74
2022/06/16 12:54:09;;;;;;;5.25;1.92;;;31.20;33.30;;;;;;900749;155;27534;-74
2022/06/16 12:56:45;;;;;;;3.05;1.60;;;31.20;33.50;;;;;;906922;155;27374;-74
2022/06/16 12:59:29;;;;;;;1.50;1.40;;;31.30;33.40;;;;;;916174;154;27356;-75
2022/06/16 13:01:56;;;;;;;3.15;1.85;;;31.30;33.40;;;;;;912144;154;27455;-74
2022/06/16 13:04:23;;;;;;;1.55;1.45;;;31.20;33.50;;;;;;916131;154;27500;-76
2022/06/16 13:06:49;;;;;;;1.85;1.60;;;31.20;33.50;;;;;;912485;154;27398;-74
2022/06/16 13:09:16;;;;;;;2.02;1.65;;;31.20;33.60;;;;;;913458;154;27530;-74
2022/06/16 13:11:48;;;;;;;1.90;1.70;;;31.20;33.80;;;;;;913624;154;27503;-74
2022/06/16 13:14:14;;;;;;;2.05;1.60;;;31.20;33.90;;;;;;907448;154;27480;-76
2022/06/16 13:16:41;;;;;;;1.72;1.60;;;31.30;34.00;;;;;;914327;154;27508;-74
2022/06/16 13:19:10;;;;;;;1.95;1.70;;;31.30;33.80;;;;;;914665;154;27540;-74
2022/06/16 13:21:37;;;;;;;1.70;1.60;;;31.30;33.70;;;;;;916584;152;27421;-75
2022/06/16 13:24:12;;;;;;;2.67;1.50;;;31.30;33.70;;;;;;912712;154;27356;-75
2022/06/16 13:26:39;;;;;;;2.22;2.02;;;31.30;33.90;;;;;;914396;154;27839;-74
2022/06/16 13:29:15;;;;;;;1.77;1.52;;;31.30;33.90;;;;;;915066;154;27514;-74